Pagina principale
METAR-TAF:

METAR-TAF

Aeroporti :

Aeroporto di Maribor-Orehova Vas

Maribor, Slovenia

latitudine: 46-29N, longitudine: 015-41E, altezza: 264 m

Osservazione

Il bollettino è stato emesso 28 minuti fa, alle 18:30 UTC
Vento 10 kt da sud-ovest
Temperature 9°C
Umidità 57%
Pressione 1023 hPa
Visibilità 10 km o più
nessuna nube inferiore a 1500 m e nessun cumulonembo

METAR: LJMB 161830Z 22010KT CAVOK 09/01 Q1023

Ora: 19:58 (18:58 UTC)

Previsione

Il bollettino è stato emesso 1 ora e 58 minuti fa, alle 17:00 UTC
Previsione valida dal 16 alle 18 UTC al 17 alle 18 UTC
Vento 8 kt da sud/sud-ovest
Visibilità 10 km o più
nessuna nube inferiore a 1500 m e nessun cumulonembo
Temporaneamente
dal 16 alle 18 UTC al 17 alle 08 UTC
Vento 15 kt da sud/sud-ovest
Temporaneamente
dal 17 alle 14 UTC al 17 alle 18 UTC
Vento 15 kt da sud/sud-ovest

TAF: LJMB 161700Z 1618/1718 20008KT CAVOK TEMPO 1618/1708 20015KT TEMPO 1714/1718 20015KT

Osservazioni e previsioni meteorologiche di più di 4000 aeroporti (messaggi METAR e TAF).

Le stazioni disponibili sono rappresentate dai dischi gialli e rossi sulla carta.

Puntare il mouse per vedere il nome della stazione.

Clicca sopra per visualizzare le osservazioni e previsioni meteorologiche.

Per cambiare la mappa : fare clic sui pulsanti verdi con una croce nera per ingrandire, il pulsante verde con un trattino per diminuire, o sulla freccia verde per le mappe adiacenti.


METAR-TAF: